Data for 05/30/2005

Time Sea-Level Adjusted Pressure Absolute Pressure Temperature Relative Humidity Dew Point   
(mb) (inHg) (mb) (inHg) (C) (F) (%) (C) (F)
00:05 1018 30.06 848 25.04 7.8 46 67 2 35.7
00:10 1018 30.06 848 25.04 7.8 46 67 2.1 35.7
00:15 1018 30.06 848 25.04 7.7 45.8 66 1.9 35.4
00:20 1018 30.06 848 25.04 7.7 45.8 67 1.9 35.4
00:25 1018 30.06 848 25.04 7.7 45.8 66 1.7 35.1
00:30 1018 30.06 848 25.04 7.7 45.9 66 1.8 35.2
00:35 1018 30.06 848 25.04 7.6 45.8 66 1.7 35
00:40 1018 30.06 848 25.04 7.6 45.7 65 1.6 34.9
00:45 1018 30.06 847 25.01 7.7 45.8 65 1.5 34.8
00:50 1018 30.06 847 25.01 7.7 45.8 64 1.3 34.3
00:55 1018 30.06 847 25.01 7.7 45.9 64 1.3 34.3
01:00 1018 30.06 847 25.01 7.7 45.8 64 1.4 34.6
01:05 1018 30.06 847 25.01 7.7 45.8 64 1.4 34.4
01:10 1018 30.06 847 25.01 7.6 45.7 64 1.2 34.1
01:15 1018 30.06 847 25.01 7.6 45.7 63 1.1 33.9
01:20 1018 30.06 847 25.01 7.6 45.6 64 1.1 34
01:25 1018 30.06 847 25.01 7.5 45.5 64 1.1 34.1
01:30 1018 30.06 847 25.01 7.4 45.3 65 1.2 34.2
01:35 1018 30.06 847 25.01 7.3 45.1 65 1.2 34.2
01:40 1018 30.06 847 25.01 7.2 45 66 1.3 34.3
01:45 1018 30.06 847 25.01 7.1 44.8 66 1.3 34.3
01:50 1018 30.06 847 25.01 7 44.6 67 1.3 34.4
01:55 1018 30.06 847 25.01 6.8 44.2 69 1.5 34.6
02:00 1018 30.06 847 25.01 6.7 44 69 1.4 34.5
02:05 1018 30.06 847 25.01 6.5 43.7 70 1.5 34.8
02:10 1018 30.06 847 25.01 6.4 43.4 71 1.5 34.7
02:15 1018 30.06 847 25.01 6.4 43.4 71 1.5 34.7
02:20 1018 30.06 847 25.01 6.3 43.3 71 1.5 34.7
02:25 1018 30.06 847 25.01 6.2 43.2 72 1.6 34.9
02:30 1018 30.06 847 25.01 6.1 42.9 73 1.5 34.8
02:35 1018 30.06 847 25.01 6.1 42.9 73 1.7 35
02:40 1018 30.06 847 25.01 5.9 42.7 74 1.7 35
02:45 1018 30.06 847 25.01 5.9 42.7 75 1.8 35.2
02:50 1018 30.06 847 25.01 5.9 42.6 75 1.8 35.2
02:55 1018 30.06 847 25.01 5.8 42.4 76 1.8 35.3
03:00 1018 30.06 847 25.01 5.7 42.3 76 1.9 35.4
03:05 1018 30.06 847 25.01 5.7 42.3 76 1.9 35.4
03:10 1018 30.06 847 25.01 5.7 42.2 77 1.9 35.4
03:15 1018 30.06 848 25.04 5.7 42.2 77 1.9 35.5
03:20 1018 30.06 847 25.01 5.8 42.4 76 2 35.6
03:25 1018 30.06 847 25.01 5.7 42.3 77 2 35.7
03:30 1018 30.06 847 25.01 5.7 42.3 77 2 35.6
03:35 1018 30.06 847 25.01 5.8 42.4 77 2.1 35.8
03:40 1018 30.06 847 25.01 5.8 42.4 77 2.1 35.8
03:45 1018 30.06 847 25.01 5.7 42.2 77 2.1 35.7
03:50 1018 30.06 847 25.01 5.7 42.3 78 2.1 35.9
03:55 1018 30.06 847 25.01 5.7 42.3 78 2.2 35.9
04:00 1018 30.06 847 25.01 5.7 42.2 78 2.1 35.8
04:05 1018 30.06 848 25.04 5.7 42.2 78 2.1 35.9
04:10 1018 30.06 848 25.04 5.6 42 79 2.2 35.9
04:15 1018 30.06 848 25.04 5.6 42 79 2.2 36
04:20 1018 30.06 848 25.04 5.5 42 79 2.2 36
04:25 1018 30.06 848 25.04 5.5 41.9 79 2.2 36
04:30 1018 30.06 848 25.04 5.5 41.9 79 2.2 36
04:35 1018 30.06 848 25.04 5.5 42 80 2.3 36.1
04:40 1018 30.06 848 25.04 5.5 41.9 80 2.3 36.2
04:45 1018 30.06 847 25.01 5.5 41.9 80 2.3 36.2
04:50 1018 30.06 848 25.04 5.5 41.9 80 2.3 36.1
04:55 1018 30.06 848 25.04 5.5 42 80 2.4 36.3
05:00 1018 30.06 848 25.04 5.5 41.8 80 2.3 36.2
05:05 1018 30.06 848 25.04 5.4 41.8 80 2.4 36.2
05:10 1018 30.06 848 25.04 5.4 41.8 81 2.4 36.2
05:15 1018 30.06 848 25.04 5.5 41.8 81 2.4 36.4
05:20 1018 30.06 848 25.04 5.4 41.7 81 2.4 36.4
05:25 1018 30.06 848 25.04 5.4 41.8 81 2.4 36.4
05:30 1018 30.06 848 25.04 5.4 41.7 81 2.4 36.4
05:35 1018 30.06 848 25.04 5.5 41.8 81 2.5 36.5
05:40 1018 30.06 848 25.04 5.4 41.7 81 2.5 36.4
05:45 1018 30.06 848 25.04 5.4 41.7 81 2.4 36.3
05:50 1018 30.06 848 25.04 5.4 41.7 81 2.4 36.3
05:55 1018 30.06 848 25.04 5.4 41.8 81 2.4 36.4
06:00 1018 30.06 848 25.04 5.4 41.7 81 2.4 36.3
06:05 1018 30.06 848 25.04 5.4 41.7 81 2.4 36.3
06:10 1018 30.06 848 25.04 5.4 41.7 80 2.3 36.1
06:15 1019 30.09 848 25.04 5.4 41.7 80 2.3 36.2
06:20 1018 30.06 848 25.04 5.4 41.7 80 2.3 36.1
06:25 1018 30.06 848 25.04 5.6 42.1 79 2.2 36
06:30 1019 30.09 848 25.04 5.8 42.5 78 2.3 36.1
06:35 1019 30.09 848 25.04 6 42.7 77 2.3 36.2
06:40 1019 30.09 848 25.04 5.8 42.5 77 2.2 36
06:45 1019 30.09 848 25.04 6.1 43 76 2.3 36.1
06:50 1019 30.09 848 25.04 6.4 43.5 75 2.3 36.1
06:55 1019 30.09 848 25.04 6.6 43.8 75 2.4 36.4
07:00 1019 30.09 848 25.04 6.7 44 74 2.4 36.4
07:05 1019 30.09 848 25.04 6.8 44.2 74 2.5 36.4
07:10 1019 30.09 848 25.04 6.8 44.3 74 2.5 36.4
07:15 1019 30.09 848 25.04 6.6 43.9 75 2.5 36.4
07:20 1019 30.09 848 25.04 6.7 44.1 73 2.3 36.2
07:25 1019 30.09 848 25.04 6.9 44.5 74 2.6 36.6
07:30 1019 30.09 848 25.04 7.1 44.7 72 2.5 36.4
07:35 1019 30.09 848 25.04 7.5 45.6 71 2.7 36.8
07:40 1019 30.09 848 25.04 7.5 45.4 71 2.6 36.7
07:45 1019 30.09 848 25.04 7.7 45.8 70 2.6 36.6
07:50 1019 30.09 848 25.04 7.7 45.8 70 2.6 36.7
07:55 1019 30.09 848 25.04 7.7 45.9 70 2.6 36.6
08:00 1019 30.09 848 25.04 7.6 45.6 71 2.7 36.8
08:05 1019 30.09 848 25.04 7.7 45.9 70 2.7 36.8
08:10 1019 30.09 848 25.04 7.9 46.3 68 2.5 36.5
08:15 1019 30.09 848 25.04 8 46.3 69 2.7 36.9
08:20 1019 30.09 848 25.04 8 46.5 69 2.7 36.9
08:25 1019 30.09 848 25.04 8 46.3 70 2.7 36.9
08:30 1019 30.09 848 25.04 7.8 46 69 2.6 36.6
08:35 1019 30.09 848 25.04 8.4 47 67 2.6 36.8
08:40 1019 30.09 848 25.04 8.3 46.9 70 3 37.5
08:45 1019 30.09 848 25.04 8.1 46.5 69 2.8 37
08:50 1019 30.09 848 25.04 8.5 47.2 67 2.7 36.8
08:55 1019 30.09 848 25.04 8.5 47.2 66 2.5 36.5
09:00 1019 30.09 848 25.04 8.9 47.9 65 2.6 36.7
09:05 1019 30.09 848 25.04 8.8 47.8 62 2 35.6
09:10 1019 30.09 848 25.04 9.5 49.1 58 1.8 35.2
09:15 1019 30.09 848 25.04 9.9 49.8 60 2.4 36.4
09:20 1019 30.09 848 25.04 9.6 49.3 61 2.5 36.5
09:25 1019 30.09 848 25.04 9.6 49.3 61 2.6 36.6
09:30 1019 30.09 848 25.04 9.3 48.7 62 2.3 36.2
09:35 1019 30.09 848 25.04 9.2 48.6 61 2.1 35.8
09:40 1019 30.09 848 25.04 9.5 49.2 60 2.1 35.8
09:45 1019 30.09 848 25.04 9.7 49.4 59 2 35.6
09:50 1019 30.09 848 25.04 10 50 59 2.5 36.5
09:55 1019 30.09 848 25.04 9.8 49.6 58 1.8 35.3
10:00 1019 30.09 848 25.04 9.1 48.4 58 1.4 34.5
10:05 1019 30.09 848 25.04 9.6 49.3 54 0.9 33.6
10:10 1018 30.06 848 25.04 10.2 50.4 55 1.6 34.9
10:15 1019 30.09 848 25.04 10.1 50.2 54 1.4 34.5
10:20 1018 30.06 848 25.04 10.2 50.3 53 1.2 34.2
10:25 1018 30.06 848 25.04 9.9 49.8 53 0.9 33.6
10:30 1018 30.06 848 25.04 10.2 50.3 53 1 33.8
10:35 1019 30.09 848 25.04 10.2 50.4 54 1.4 34.5
10:40 1019 30.09 848 25.04 10.1 50.2 53 1.1 33.9
10:45 1018 30.06 848 25.04 10.5 50.8 52 1 33.7
10:50 1018 30.06 848 25.04 10.3 50.5 52 1.1 33.9
10:55 1018 30.06 848 25.04 10.4 50.7 57 2.2 36
11:00 1018 30.06 848 25.04 10.2 50.4 55 1.7 35.1
11:05 1018 30.06 847 25.01 10.5 50.9 49 0.4 32.6
11:10 1018 30.06 848 25.04 10.5 50.9 50 0.6 33.2
11:15 1018 30.06 848 25.04 11.1 51.9 51 1.3 34.4
11:20 1018 30.06 848 25.04 11.6 52.8 52 2.2 36
11:25 1018 30.06 848 25.04 11.4 52.6 48 1 33.8
11:30 1018 30.06 847 25.01 11.5 52.7 49 1.2 34.2
11:35 1018 30.06 848 25.04 11.3 52.4 50 1.4 34.6
11:40 1018 30.06 848 25.04 10.8 51.5 52 1.4 34.6
11:45 1018 30.06 847 25.01 11.3 52.4 49 1.1 33.9
11:50 1018 30.06 847 25.01 11.3 52.3 49 1 33.8
11:55 1018 30.06 847 25.01 11.5 52.6 49 1.1 33.9
12:00 1018 30.06 847 25.01 11.1 52 51 1.4 34.6
12:05 1018 30.06 847 25.01 11.1 52 51 1.4 34.5
12:10 1018 30.06 847 25.01 11.2 52.2 49 0.9 33.6
12:15 1018 30.06 847 25.01 11.4 52.5 50 1.3 34.4
12:20 1018 30.06 847 25.01 11.5 52.7 50 1.4 34.5
12:25 1018 30.06 847 25.01 11.5 52.7 50 1.5 34.6
12:30 1018 30.06 847 25.01 11.3 52.4 50 1.2 34.2
12:35 1018 30.06 847 25.01 11.6 53 47 0.9 33.6
12:40 1018 30.06 847 25.01 12.3 54.2 45 0.8 33.5
12:45 1018 30.06 847 25.01 11.7 53 48 1.1 34
12:50 1018 30.06 847 25.01 11.5 52.7 47 0.6 33.1
12:55 1018 30.06 847 25.01 11.6 52.9 47 0.7 33.2
13:00 1018 30.06 847 25.01 11.8 53.2 46 0.7 33.2
13:05 1018 30.06 847 25.01 12.1 53.8 46 0.8 33.5
13:10 1018 30.06 847 25.01 12.4 54.2 45 0.7 33.3
13:15 1018 30.06 847 25.01 12.7 54.9 43 0.6 33
13:20 1018 30.06 847 25.01 12.5 54.5 45 0.9 33.6
13:25 1018 30.06 847 25.01 12.2 54 46 0.9 33.7
13:30 1018 30.06 847 25.01 12.2 53.9 45 0.5 33
13:35 1018 30.06 847 25.01 12.5 54.5 44 0.7 33.3
13:40 1018 30.06 847 25.01 12.2 53.9 46 1.1 33.9
13:45 1018 30.06 847 25.01 12.5 54.5 46 1.2 34.1
13:50 1018 30.06 847 25.01 12.5 54.4 46 1.1 34
13:55 1018 30.06 847 25.01 12.8 55 41 -0.1 31.8
14:00 1018 30.06 847 25.01 13.2 55.7 41 0.5 32.8
14:05 1018 30.06 847 25.01 13.2 55.8 43 0.8 33.5
14:10 1018 30.06 847 25.01 13.1 55.5 42 0.6 33.1
14:15 1018 30.06 847 25.01 13.3 55.9 42 0.6 33.1
14:20 1018 30.06 847 25.01 13.5 56.2 41 0.6 33.1
14:25 1017 30.03 847 25.01 13.5 56.2 41 0.6 33.1
14:30 1017 30.03 847 25.01 13.5 56.3 40 0.4 32.7
14:35 1017 30.03 847 25.01 13.7 56.6 39 0 32
14:40 1017 30.03 847 25.01 13.6 56.5 40 0.3 32.5
14:45 1017 30.03 847 25.01 13.5 56.3 39 -0.2 31.7
14:50 1017 30.03 847 25.01 13.7 56.6 39 -0 32
14:55 1017 30.03 847 25.01 13.9 57.1 38 -0.1 31.8
15:00 1017 30.03 847 25.01 14.7 58.4 35 -0.4 31.3
15:05 1017 30.03 847 25.01 14.5 58.1 35 -0.6 30.8
15:10 1017 30.03 846 24.98 14.2 57.5 36 -0.8 30.6
15:15 1017 30.03 847 25.01 14.2 57.5 39 0.5 32.9
15:20 1017 30.03 846 24.98 14.7 58.4 36 -0.2 31.6
15:25 1017 30.03 847 25.01 15.3 59.5 32 -1 30.1
15:30 1017 30.03 846 24.98 14.5 58.1 36 -0.5 31.2
15:35 1017 30.03 846 24.98 14.6 58.2 37 0 32
15:40 1017 30.03 846 24.98 14.6 58.3 37 0.2 32.3
15:45 1017 30.03 846 24.98 15.2 59.3 35 0 32.1
15:50 1017 30.03 846 24.98 15.7 60.2 35 0.5 32.9
15:55 1017 30.03 846 24.98 14.5 58 39 0.7 33.2
16:00 1017 30.03 846 24.98 14.1 57.4 40 0.6 33.2
16:05 1017 30.03 846 24.98 12.9 55.3 48 2.2 36
16:10 1017 30.03 847 25.01 11.6 52.8 54 2.5 36.5
16:15 1018 30.06 847 25.01 11.2 52.1 53 1.9 35.5
16:20 1018 30.06 847 25.01 11.1 52 53 2 35.6
16:25 1018 30.06 847 25.01 11 51.8 55 2.3 36.2
16:30 1017 30.03 847 25.01 10.9 51.7 54 2.1 35.8
16:35 1017 30.03 847 25.01 11.2 52.2 53 2 35.6
16:40 1017 30.03 847 25.01 11 51.8 52 1.6 34.9
16:45 1017 30.03 847 25.01 11.3 52.3 50 1.3 34.4
16:50 1017 30.03 847 25.01 11.5 52.8 48 1 33.8
16:55 1017 30.03 847 25.01 12 53.6 47 1.1 34
17:00 1017 30.03 847 25.01 11.9 53.5 48 1.4 34.6
17:05 1017 30.03 847 25.01 12 53.6 47 1.1 33.9
17:10 1017 30.03 846 24.98 12.1 53.8 46 1 33.7
17:15 1017 30.03 847 25.01 12.2 53.9 48 1.7 35
17:20 1017 30.03 847 25.01 12.3 54.1 47 1.4 34.5
17:25 1017 30.03 847 25.01 12.5 54.5 45 0.9 33.7
17:30 1017 30.03 847 25.01 13.1 55.6 42 0.7 33.2
17:35 1017 30.03 847 25.01 13.7 56.6 39 0 32.1
17:40 1017 30.03 847 25.01 13.6 56.5 40 0.4 32.7
17:45 1017 30.03 847 25.01 13.5 56.3 41 0.7 33.2
17:50 1017 30.03 847 25.01 13.2 55.8 44 1.2 34.1
17:55 1017 30.03 847 25.01 13 55.4 45 1.3 34.3
18:00 1017 30.03 847 25.01 13.1 55.7 44 1.2 34.2
18:05 1017 30.03 847 25.01 12.5 54.6 46 1.2 34.2
18:10 1017 30.03 847 25.01 12.8 55 46 1.5 34.6
18:15 1017 30.03 846 24.98 12.4 54.4 48 1.7 35
18:20 1017 30.03 847 25.01 12.2 54 47 1.3 34.3
18:25 1017 30.03 846 24.98 12.1 53.8 48 1.4 34.6
18:30 1017 30.03 847 25.01 11.8 53.3 48 1.3 34.4
18:35 1017 30.03 846 24.98 11.8 53.2 50 1.8 35.2
18:40 1017 30.03 847 25.01 11.5 52.6 52 1.9 35.4
18:45 1017 30.03 847 25.01 11.3 52.4 55 2.8 37
18:50 1017 30.03 847 25.01 11 51.8 56 2.5 36.5
18:55 1018 30.06 847 25.01 10.7 51.3 57 2.7 36.8
19:00 1017 30.03 847 25.01 10.8 51.4 57 2.7 36.9
19:05 1018 30.06 847 25.01 10.4 50.7 58 2.7 36.8
19:10 1018 30.06 847 25.01 10.3 50.6 59 2.6 36.7
19:15 1018 30.06 847 25.01 10.3 50.5 58 2.4 36.3
19:20 1018 30.06 847 25.01 10.2 50.3 58 2.4 36.3
19:25 1018 30.06 847 25.01 10.1 50.1 58 2.2 36
19:30 1018 30.06 847 25.01 9.9 49.9 57 1.9 35.4
19:35 1018 30.06 847 25.01 9.8 49.6 60 2.3 36.2
19:40 1018 30.06 847 25.01 9.7 49.4 59 2.1 35.8
19:45 1018 30.06 847 25.01 9.7 49.4 58 1.9 35.4
19:50 1018 30.06 847 25.01 9.9 49.8 57 1.9 35.4
19:55 1018 30.06 847 25.01 9.9 49.8 59 2.4 36.3
20:00 1018 30.06 847 25.01 9.6 49.2 59 1.9 35.4
20:05 1018 30.06 847 25.01 9.2 48.6 61 2.1 35.8
20:10 1018 30.06 847 25.01 9 48.1 63 2.3 36.2
20:15 1018 30.06 847 25.01 8.7 47.6 65 2.5 36.6
20:20 1018 30.06 847 25.01 8.4 47.1 65 2.3 36.1
20:25 1018 30.06 847 25.01 8.3 47 65 2.2 35.9
20:30 1018 30.06 847 25.01 8.1 46.6 66 2.2 35.9
20:35 1018 30.06 847 25.01 7.9 46.3 66 2 35.7
20:40 1018 30.06 847 25.01 7.7 45.9 67 2.1 35.7
20:45 1018 30.06 847 25.01 7.5 45.5 68 1.9 35.4
20:50 1018 30.06 847 25.01 7.4 45.2 68 1.9 35.3
20:55 1018 30.06 847 25.01 7.2 45 69 2.1 35.7
21:00 1018 30.06 847 25.01 7.1 44.8 70 2 35.5
21:05 1018 30.06 847 25.01 7 44.7 69 1.8 35.3
21:10 1018 30.06 847 25.01 7 44.5 70 1.8 35.3
21:15 1018 30.06 847 25.01 6.9 44.4 70 1.8 35.3
21:20 1018 30.06 847 25.01 6.8 44.2 70 1.8 35.2
21:25 1018 30.06 847 25.01 6.7 44.1 70 1.7 35
21:30 1018 30.06 847 25.01 6.6 43.9 70 1.6 34.9
21:35 1018 30.06 847 25.01 6.5 43.8 70 1.5 34.7
21:40 1018 30.06 847 25.01 6.5 43.7 70 1.4 34.5
21:45 1018 30.06 847 25.01 6.5 43.7 70 1.4 34.6
21:50 1018 30.06 847 25.01 6.5 43.7 70 1.4 34.5
21:55 1018 30.06 847 25.01 6.4 43.5 70 1.4 34.5
22:00 1018 30.06 847 25.01 6.3 43.4 71 1.4 34.5
22:05 1018 30.06 847 25.01 6.2 43.2 71 1.4 34.6
22:10 1018 30.06 847 25.01 6.1 43.1 72 1.5 34.6
22:15 1018 30.06 847 25.01 6 42.8 73 1.5 34.7
22:20 1018 30.06 847 25.01 6 42.7 73 1.5 34.6
22:25 1018 30.06 847 25.01 5.9 42.7 73 1.5 34.8
22:30 1018 30.06 847 25.01 6 42.7 73 1.5 34.6
22:35 1018 30.06 847 25.01 5.8 42.5 74 1.6 34.9
22:40 1018 30.06 847 25.01 5.7 42.3 75 1.6 34.9
22:45 1018 30.06 847 25.01 5.6 42.1 75 1.4 34.6
22:50 1018 30.06 847 25.01 5.6 42 75 1.5 34.7
22:55 1018 30.06 847 25.01 5.6 42 75 1.5 34.6
23:00 1018 30.06 847 25.01 5.5 42 75 1.5 34.7
23:05 1018 30.06 847 25.01 5.5 41.8 75 1.5 34.6
23:10 1018 30.06 847 25.01 5.4 41.8 75 1.4 34.5
23:15 1018 30.06 847 25.01 5.5 41.9 74 1.3 34.3
23:20 1017 30.03 846 24.98 5.5 41.8 74 1.2 34.2
23:25 1017 30.03 846 24.98 5.4 41.7 75 1.2 34.2
23:30 1017 30.03 847 25.01 5.2 41.4 76 1.3 34.3
23:35 1017 30.03 847 25.01 5.1 41.1 76 1.2 34.1
23:40 1017 30.03 847 25.01 5.1 41.2 76 1.2 34.2
23:45 1017 30.03 846 24.98 5.2 41.4 74 1 33.8
23:50 1017 30.03 847 25.01 5.4 41.7 74 1.1 34.1
23:55 1018 30.06 847 25.01 5.3 41.5 74 1 33.8
24:00 1018 30.06 847 25.01 5.3 41.6 74 1 33.9